sensor_id;sensor_type;location;lat;lon;timestamp;P1;durP1;ratioP1;P2;durP2;ratioP2
49764;SDS011;35657;51.204;-4.130;2022-12-18T17:12:31;1.52;;;0.65;;
49764;SDS011;35657;51.204;-4.130;2022-12-18T17:14:57;1.42;;;0.60;;
49764;SDS011;35657;51.204;-4.130;2022-12-18T17:17:22;1.30;;;0.98;;
49764;SDS011;35657;51.204;-4.130;2022-12-18T17:19:48;1.27;;;0.65;;
49764;SDS011;35657;51.204;-4.130;2022-12-18T17:22:14;1.17;;;0.75;;
49764;SDS011;35657;51.204;-4.130;2022-12-18T17:24:40;1.38;;;0.73;;
49764;SDS011;35657;51.204;-4.130;2022-12-18T17:27:06;1.27;;;0.85;;
49764;SDS011;35657;51.204;-4.130;2022-12-18T17:29:32;1.20;;;0.63;;
49764;SDS011;35657;51.204;-4.130;2022-12-18T17:31:58;2.65;;;1.02;;
49764;SDS011;35657;51.204;-4.130;2022-12-18T17:34:24;0.70;;;0.40;;
49764;SDS011;35657;51.204;-4.130;2022-12-18T17:36:49;0.68;;;0.68;;
49764;SDS011;35657;51.204;-4.130;2022-12-18T17:39:16;3.85;;;1.90;;
49764;SDS011;35657;51.204;-4.130;2022-12-18T17:41:43;14.88;;;9.25;;
49764;SDS011;35657;51.204;-4.130;2022-12-18T17:44:09;10.30;;;7.30;;
49764;SDS011;35657;51.204;-4.130;2022-12-18T17:46:34;16.63;;;8.32;;
49764;SDS011;35657;51.204;-4.130;2022-12-18T17:49:01;11.73;;;4.30;;
49764;SDS011;35657;51.204;-4.130;2022-12-18T17:51:29;3.72;;;2.22;;
49764;SDS011;35657;51.204;-4.130;2022-12-18T17:53:55;8.50;;;3.85;;
49764;SDS011;35657;51.204;-4.130;2022-12-18T17:56:21;3.30;;;2.20;;
49764;SDS011;35657;51.204;-4.130;2022-12-18T17:58:48;6.28;;;3.80;;
49764;SDS011;35657;51.204;-4.130;2022-12-18T18:01:15;2.40;;;1.98;;
49764;SDS011;35657;51.204;-4.130;2022-12-18T18:03:45;2.65;;;1.30;;
49764;SDS011;35657;51.204;-4.130;2022-12-18T18:06:11;2.47;;;1.63;;
49764;SDS011;35657;51.204;-4.130;2022-12-18T18:08:37;2.83;;;1.38;;
49764;SDS011;35657;51.204;-4.130;2022-12-18T18:11:07;2.10;;;1.10;;
49764;SDS011;35657;51.204;-4.130;2022-12-18T18:13:54;2.42;;;1.58;;
49764;SDS011;35657;51.204;-4.130;2022-12-18T18:16:27;2.55;;;0.90;;
49764;SDS011;35657;51.204;-4.130;2022-12-18T18:18:57;1.55;;;0.90;;
49764;SDS011;35657;51.204;-4.130;2022-12-18T18:21:24;2.53;;;0.88;;
49764;SDS011;35657;51.204;-4.130;2022-12-18T18:23:51;1.00;;;0.50;;
49764;SDS011;35657;51.204;-4.130;2022-12-18T18:26:17;2.63;;;1.15;;
49764;SDS011;35657;51.204;-4.130;2022-12-18T18:28:43;0.50;;;0.40;;
49764;SDS011;35657;51.204;-4.130;2022-12-18T18:31:09;0.32;;;0.32;;
49764;SDS011;35657;51.204;-4.130;2022-12-18T18:33:35;0.77;;;0.50;;
49764;SDS011;35657;51.204;-4.130;2022-12-18T18:36:01;1.95;;;0.75;;
49764;SDS011;35657;51.204;-4.130;2022-12-18T18:38:27;0.65;;;0.60;;
49764;SDS011;35657;51.204;-4.130;2022-12-18T18:40:57;1.20;;;0.52;;
49764;SDS011;35657;51.204;-4.130;2022-12-18T18:43:24;1.20;;;0.95;;
49764;SDS011;35657;51.204;-4.130;2022-12-18T18:45:53;3.72;;;1.60;;
49764;SDS011;35657;51.204;-4.130;2022-12-18T18:48:23;4.72;;;1.13;;
49764;SDS011;35657;51.204;-4.130;2022-12-18T18:50:56;0.80;;;0.68;;
49764;SDS011;35657;51.204;-4.130;2022-12-18T18:53:26;1.83;;;0.80;;
49764;SDS011;35657;51.204;-4.130;2022-12-18T18:55:52;0.63;;;0.60;;
49764;SDS011;35657;51.204;-4.130;2022-12-18T18:58:21;1.10;;;0.63;;
49764;SDS011;35657;51.204;-4.130;2022-12-18T19:00:53;1.95;;;0.70;;
49764;SDS011;35657;51.204;-4.130;2022-12-18T19:03:20;1.48;;;0.77;;
49764;SDS011;35657;51.204;-4.130;2022-12-18T19:05:49;4.70;;;2.67;;
49764;SDS011;35657;51.204;-4.130;2022-12-18T19:08:20;8.38;;;4.20;;
49764;SDS011;35657;51.204;-4.130;2022-12-18T19:10:49;3.03;;;2.17;;
49764;SDS011;35657;51.204;-4.130;2022-12-18T19:13:19;4.35;;;2.63;;
49764;SDS011;35657;51.204;-4.130;2022-12-18T19:15:50;8.35;;;4.78;;
49764;SDS011;35657;51.204;-4.130;2022-12-18T19:18:18;16.10;;;11.32;;
49764;SDS011;35657;51.204;-4.130;2022-12-18T19:20:44;9.43;;;4.50;;
49764;SDS011;35657;51.204;-4.130;2022-12-18T19:23:22;6.93;;;4.88;;
49764;SDS011;35657;51.204;-4.130;2022-12-18T19:25:48;2.50;;;1.25;;
49764;SDS011;35657;51.204;-4.130;2022-12-18T19:28:14;2.22;;;1.25;;
49764;SDS011;35657;51.204;-4.130;2022-12-18T19:30:40;2.08;;;1.50;;
49764;SDS011;35657;51.204;-4.130;2022-12-18T19:33:06;2.33;;;1.42;;
49764;SDS011;35657;51.204;-4.130;2022-12-18T19:35:31;3.92;;;1.83;;
49764;SDS011;35657;51.204;-4.130;2022-12-18T19:37:57;1.95;;;1.20;;
49764;SDS011;35657;51.204;-4.130;2022-12-18T19:40:23;2.90;;;1.73;;
49764;SDS011;35657;51.204;-4.130;2022-12-18T19:42:49;2.22;;;0.88;;
49764;SDS011;35657;51.204;-4.130;2022-12-18T19:45:15;1.15;;;0.70;;
49764;SDS011;35657;51.204;-4.130;2022-12-18T19:47:40;2.30;;;0.70;;
49764;SDS011;35657;51.204;-4.130;2022-12-18T19:50:06;0.70;;;0.65;;
49764;SDS011;35657;51.204;-4.130;2022-12-18T19:52:33;2.72;;;0.93;;
49764;SDS011;35657;51.204;-4.130;2022-12-18T19:54:59;2.38;;;0.73;;
49764;SDS011;35657;51.204;-4.130;2022-12-18T19:57:25;3.97;;;0.80;;
49764;SDS011;35657;51.204;-4.130;2022-12-18T19:59:51;3.70;;;1.38;;
49764;SDS011;35657;51.204;-4.130;2022-12-18T20:02:17;3.08;;;1.05;;
49764;SDS011;35657;51.204;-4.130;2022-12-18T20:04:44;1.85;;;0.90;;
49764;SDS011;35657;51.204;-4.130;2022-12-18T20:07:10;2.08;;;1.20;;
49764;SDS011;35657;51.204;-4.130;2022-12-18T20:09:36;4.75;;;0.68;;
49764;SDS011;35657;51.204;-4.130;2022-12-18T20:12:02;1.85;;;0.95;;
49764;SDS011;35657;51.204;-4.130;2022-12-18T20:14:28;2.75;;;0.82;;
49764;SDS011;35657;51.204;-4.130;2022-12-18T20:16:54;3.03;;;1.15;;
49764;SDS011;35657;51.204;-4.130;2022-12-18T20:19:20;2.60;;;1.35;;
49764;SDS011;35657;51.204;-4.130;2022-12-18T20:21:45;1.80;;;0.77;;
49764;SDS011;35657;51.204;-4.130;2022-12-18T20:24:11;3.42;;;1.55;;
49764;SDS011;35657;51.204;-4.130;2022-12-18T20:26:37;15.48;;;5.75;;
49764;SDS011;35657;51.204;-4.130;2022-12-18T20:29:04;2.60;;;1.45;;
49764;SDS011;35657;51.204;-4.130;2022-12-18T20:31:30;1.38;;;0.80;;
49764;SDS011;35657;51.204;-4.130;2022-12-18T20:33:56;1.60;;;0.68;;
49764;SDS011;35657;51.204;-4.130;2022-12-18T20:36:22;0.75;;;0.57;;
49764;SDS011;35657;51.204;-4.130;2022-12-18T20:38:48;1.30;;;0.60;;
49764;SDS011;35657;51.204;-4.130;2022-12-18T20:41:16;3.85;;;1.10;;
49764;SDS011;35657;51.204;-4.130;2022-12-18T20:43:43;1.73;;;0.57;;
49764;SDS011;35657;51.204;-4.130;2022-12-18T20:46:09;2.78;;;0.80;;
49764;SDS011;35657;51.204;-4.130;2022-12-18T20:48:38;1.13;;;0.60;;
49764;SDS011;35657;51.204;-4.130;2022-12-18T20:51:05;2.90;;;0.70;;
49764;SDS011;35657;51.204;-4.130;2022-12-18T20:53:32;1.85;;;0.88;;
49764;SDS011;35657;51.204;-4.130;2022-12-18T20:55:58;1.80;;;0.60;;
49764;SDS011;35657;51.204;-4.130;2022-12-18T20:58:26;1.23;;;1.00;;
49764;SDS011;35657;51.204;-4.130;2022-12-18T21:03:48;0.82;;;0.68;;
49764;SDS011;35657;51.204;-4.130;2022-12-18T21:06:15;3.50;;;1.00;;
49764;SDS011;35657;51.204;-4.130;2022-12-18T21:08:43;1.83;;;1.00;;
49764;SDS011;35657;51.204;-4.130;2022-12-18T21:14:03;1.77;;;0.55;;
49764;SDS011;35657;51.204;-4.130;2022-12-18T21:16:36;2.47;;;0.60;;
49764;SDS011;35657;51.204;-4.130;2022-12-18T21:19:02;0.57;;;0.50;;
49764;SDS011;35657;51.204;-4.130;2022-12-18T21:21:27;1.55;;;1.35;;
49764;SDS011;35657;51.204;-4.130;2022-12-18T21:23:53;2.15;;;0.40;;
49764;SDS011;35657;51.204;-4.130;2022-12-18T21:28:59;1.27;;;0.55;;
49764;SDS011;35657;51.204;-4.130;2022-12-18T21:31:28;1.90;;;0.63;;
49764;SDS011;35657;51.204;-4.130;2022-12-18T21:33:55;2.17;;;0.80;;
49764;SDS011;35657;51.204;-4.130;2022-12-18T21:36:22;0.88;;;0.40;;
49764;SDS011;35657;51.204;-4.130;2022-12-18T21:38:48;0.80;;;0.50;;
49764;SDS011;35657;51.204;-4.130;2022-12-18T21:41:14;1.15;;;0.50;;
49764;SDS011;35657;51.204;-4.130;2022-12-18T21:44:00;4.95;;;0.70;;
49764;SDS011;35657;51.204;-4.130;2022-12-18T21:46:35;0.65;;;0.50;;
49764;SDS011;35657;51.204;-4.130;2022-12-18T21:49:04;2.42;;;0.80;;
49764;SDS011;35657;51.204;-4.130;2022-12-18T21:51:32;3.33;;;1.15;;
49764;SDS011;35657;51.204;-4.130;2022-12-18T21:53:59;2.25;;;0.50;;
49764;SDS011;35657;51.204;-4.130;2022-12-18T21:56:41;0.47;;;0.30;;
49764;SDS011;35657;51.204;-4.130;2022-12-18T21:59:30;1.15;;;0.43;;
49764;SDS011;35657;51.204;-4.130;2022-12-18T22:02:02;1.35;;;0.60;;
49764;SDS011;35657;51.204;-4.130;2022-12-18T22:04:29;3.20;;;0.80;;
49764;SDS011;35657;51.204;-4.130;2022-12-18T22:06:55;0.32;;;0.32;;
49764;SDS011;35657;51.204;-4.130;2022-12-18T22:09:22;0.63;;;0.40;;
49764;SDS011;35657;51.204;-4.130;2022-12-18T22:11:49;4.15;;;0.88;;
49764;SDS011;35657;51.204;-4.130;2022-12-18T22:14:15;0.65;;;0.40;;
49764;SDS011;35657;51.204;-4.130;2022-12-18T22:16:41;3.50;;;0.50;;
49764;SDS011;35657;51.204;-4.130;2022-12-18T22:19:08;0.95;;;0.30;;
49764;SDS011;35657;51.204;-4.130;2022-12-18T22:21:36;1.10;;;0.40;;
49764;SDS011;35657;51.204;-4.130;2022-12-18T22:24:13;1.02;;;0.50;;
49764;SDS011;35657;51.204;-4.130;2022-12-18T22:26:39;1.02;;;0.50;;
49764;SDS011;35657;51.204;-4.130;2022-12-18T22:29:05;0.68;;;0.57;;
49764;SDS011;35657;51.204;-4.130;2022-12-18T22:31:55;0.77;;;0.50;;
49764;SDS011;35657;51.204;-4.130;2022-12-18T22:34:21;1.75;;;0.70;;
49764;SDS011;35657;51.204;-4.130;2022-12-18T22:36:47;0.47;;;0.30;;
49764;SDS011;35657;51.204;-4.130;2022-12-18T22:39:16;0.30;;;0.30;;
49764;SDS011;35657;51.204;-4.130;2022-12-18T22:41:53;1.42;;;0.85;;
49764;SDS011;35657;51.204;-4.130;2022-12-18T22:44:19;1.48;;;0.50;;
49764;SDS011;35657;51.204;-4.130;2022-12-18T22:46:47;3.50;;;0.30;;
49764;SDS011;35657;51.204;-4.130;2022-12-18T22:49:15;6.75;;;4.75;;
49764;SDS011;35657;51.204;-4.130;2022-12-18T22:51:42;9.95;;;5.60;;
49764;SDS011;35657;51.204;-4.130;2022-12-18T22:54:08;27.27;;;16.13;;
49764;SDS011;35657;51.204;-4.130;2022-12-18T22:56:34;19.30;;;10.48;;
49764;SDS011;35657;51.204;-4.130;2022-12-18T22:59:00;21.65;;;13.00;;
49764;SDS011;35657;51.204;-4.130;2022-12-18T23:01:27;31.27;;;18.20;;
49764;SDS011;35657;51.204;-4.130;2022-12-18T23:03:54;38.17;;;23.80;;
49764;SDS011;35657;51.204;-4.130;2022-12-18T23:06:21;22.23;;;9.50;;
49764;SDS011;35657;51.204;-4.130;2022-12-18T23:08:49;14.15;;;9.57;;
49764;SDS011;35657;51.204;-4.130;2022-12-18T23:11:15;10.90;;;5.80;;
49764;SDS011;35657;51.204;-4.130;2022-12-18T23:13:42;3.08;;;2.50;;
49764;SDS011;35657;51.204;-4.130;2022-12-18T23:16:16;5.95;;;3.78;;
49764;SDS011;35657;51.204;-4.130;2022-12-18T23:18:43;4.72;;;3.50;;
49764;SDS011;35657;51.204;-4.130;2022-12-18T23:21:09;4.20;;;2.13;;
49764;SDS011;35657;51.204;-4.130;2022-12-18T23:23:38;1.17;;;0.77;;
49764;SDS011;35657;51.204;-4.130;2022-12-18T23:26:08;1.13;;;0.95;;
49764;SDS011;35657;51.204;-4.130;2022-12-18T23:28:36;2.17;;;1.50;;
49764;SDS011;35657;51.204;-4.130;2022-12-18T23:31:06;1.02;;;0.77;;
49764;SDS011;35657;51.204;-4.130;2022-12-18T23:33:41;5.63;;;1.00;;
49764;SDS011;35657;51.204;-4.130;2022-12-18T23:36:07;2.28;;;0.80;;
49764;SDS011;35657;51.204;-4.130;2022-12-18T23:38:33;3.63;;;1.05;;
49764;SDS011;35657;51.204;-4.130;2022-12-18T23:41:01;0.90;;;0.70;;
49764;SDS011;35657;51.204;-4.130;2022-12-18T23:43:31;2.35;;;0.70;;
49764;SDS011;35657;51.204;-4.130;2022-12-18T23:45:57;2.85;;;0.75;;
49764;SDS011;35657;51.204;-4.130;2022-12-18T23:48:23;2.28;;;0.63;;
49764;SDS011;35657;51.204;-4.130;2022-12-18T23:50:48;1.17;;;0.60;;
49764;SDS011;35657;51.204;-4.130;2022-12-18T23:53:14;1.85;;;0.50;;
49764;SDS011;35657;51.204;-4.130;2022-12-18T23:55:40;1.40;;;1.20;;
49764;SDS011;35657;51.204;-4.130;2022-12-18T23:58:07;1.15;;;0.40;;
